sensor_id;sensor_type;location;lat;lon;timestamp;pressure;altitude;pressure_sealevel;temperature;humidity
77526;BME280;66627;29.424;-98.496;2023-06-19T00:00:32;97869.80;;;41.31;20.56
77526;BME280;66627;29.424;-98.496;2023-06-19T00:02:57;97869.22;;;41.90;19.87
77526;BME280;66627;29.424;-98.496;2023-06-19T00:05:23;97885.15;;;41.22;20.15
77526;BME280;66627;29.424;-98.496;2023-06-19T00:07:48;97893.85;;;40.99;21.22
77526;BME280;66627;29.424;-98.496;2023-06-19T00:10:13;97894.20;;;40.31;20.39
77526;BME280;66627;29.424;-98.496;2023-06-19T00:12:39;97891.41;;;40.55;20.62
77526;BME280;66627;29.424;-98.496;2023-06-19T00:15:06;97895.16;;;40.12;20.83
77526;BME280;66627;29.424;-98.496;2023-06-19T00:17:31;97905.12;;;39.35;22.72
77526;BME280;66627;29.424;-98.496;2023-06-19T00:19:56;97919.37;;;39.58;21.42
77526;BME280;66627;29.424;-98.496;2023-06-19T00:22:21;97929.82;;;39.57;21.66
77526;BME280;66627;29.424;-98.496;2023-06-19T00:24:47;97930.92;;;39.60;21.64
77526;BME280;66627;29.424;-98.496;2023-06-19T00:27:12;97935.17;;;39.20;22.14
77526;BME280;66627;29.424;-98.496;2023-06-19T00:29:38;97940.54;;;39.58;22.23
77526;BME280;66627;29.424;-98.496;2023-06-19T00:32:04;97936.28;;;38.96;23.30
77526;BME280;66627;29.424;-98.496;2023-06-19T00:34:30;97936.69;;;38.72;23.11
77526;BME280;66627;29.424;-98.496;2023-06-19T00:36:55;97937.70;;;39.36;23.18
77526;BME280;66627;29.424;-98.496;2023-06-19T00:39:20;97934.90;;;39.09;23.02
77526;BME280;66627;29.424;-98.496;2023-06-19T00:41:46;97941.01;;;38.76;22.72
77526;BME280;66627;29.424;-98.496;2023-06-19T00:44:11;97951.08;;;38.78;22.73
77526;BME280;66627;29.424;-98.496;2023-06-19T00:46:39;97960.73;;;38.99;23.25
77526;BME280;66627;29.424;-98.496;2023-06-19T00:49:02;97964.03;;;38.74;23.68
77526;BME280;66627;29.424;-98.496;2023-06-19T00:51:27;97964.25;;;38.60;24.16
77526;BME280;66627;29.424;-98.496;2023-06-19T00:53:53;97967.92;;;38.26;24.17
77526;BME280;66627;29.424;-98.496;2023-06-19T00:56:19;97974.05;;;38.46;24.28
77526;BME280;66627;29.424;-98.496;2023-06-19T00:58:44;97978.02;;;38.67;23.32
77526;BME280;66627;29.424;-98.496;2023-06-19T01:01:10;97982.11;;;38.20;24.66
77526;BME280;66627;29.424;-98.496;2023-06-19T01:03:35;97982.41;;;38.59;24.06
77526;BME280;66627;29.424;-98.496;2023-06-19T01:06:01;97975.13;;;38.46;23.62
77526;BME280;66627;29.424;-98.496;2023-06-19T01:08:43;97972.33;;;38.33;25.51
77526;BME280;66627;29.424;-98.496;2023-06-19T01:10:56;97966.71;;;37.85;25.09
77526;BME280;66627;29.424;-98.496;2023-06-19T01:13:28;97969.35;;;38.17;24.91
77526;BME280;66627;29.424;-98.496;2023-06-19T01:15:43;97970.29;;;37.39;25.20
77526;BME280;66627;29.424;-98.496;2023-06-19T01:18:09;97968.40;;;38.14;24.62
77526;BME280;66627;29.424;-98.496;2023-06-19T01:20:34;97966.86;;;38.16;24.75
77526;BME280;66627;29.424;-98.496;2023-06-19T01:23:07;97959.95;;;37.81;26.02
77526;BME280;66627;29.424;-98.496;2023-06-19T01:25:26;97956.06;;;38.03;24.96
77526;BME280;66627;29.424;-98.496;2023-06-19T01:27:51;97954.32;;;37.63;25.29
77526;BME280;66627;29.424;-98.496;2023-06-19T01:30:16;97950.37;;;37.97;25.13
77526;BME280;66627;29.424;-98.496;2023-06-19T01:32:50;97953.66;;;37.62;25.15
77526;BME280;66627;29.424;-98.496;2023-06-19T01:35:08;97954.99;;;37.84;25.63
77526;BME280;66627;29.424;-98.496;2023-06-19T01:37:33;97956.80;;;37.99;25.41
77526;BME280;66627;29.424;-98.496;2023-06-19T01:39:59;97960.38;;;37.94;25.30
77526;BME280;66627;29.424;-98.496;2023-06-19T01:42:24;97961.04;;;37.47;26.64
77526;BME280;66627;29.424;-98.496;2023-06-19T01:44:50;97955.85;;;37.63;25.92
77526;BME280;66627;29.424;-98.496;2023-06-19T01:47:15;97954.81;;;37.15;26.18
77526;BME280;66627;29.424;-98.496;2023-06-19T01:49:40;97940.90;;;37.49;26.24
77526;BME280;66627;29.424;-98.496;2023-06-19T01:52:06;97932.21;;;36.99;26.60
77526;BME280;66627;29.424;-98.496;2023-06-19T01:54:32;97925.52;;;36.85;26.38
77526;BME280;66627;29.424;-98.496;2023-06-19T01:56:58;97925.37;;;35.99;27.78
77526;BME280;66627;29.424;-98.496;2023-06-19T01:59:23;97924.78;;;35.35;29.97
77526;BME280;66627;29.424;-98.496;2023-06-19T02:01:49;97930.98;;;35.61;31.37
77526;BME280;66627;29.424;-98.496;2023-06-19T02:04:14;97938.50;;;35.56;32.87
77526;BME280;66627;29.424;-98.496;2023-06-19T02:06:39;97942.56;;;35.36;34.00
77526;BME280;66627;29.424;-98.496;2023-06-19T02:09:04;97948.20;;;34.78;35.61
77526;BME280;66627;29.424;-98.496;2023-06-19T02:11:30;97947.52;;;35.16;36.25
77526;BME280;66627;29.424;-98.496;2023-06-19T02:13:55;97943.41;;;35.06;36.87
77526;BME280;66627;29.424;-98.496;2023-06-19T02:16:20;97932.63;;;34.62;37.92
77526;BME280;66627;29.424;-98.496;2023-06-19T02:18:45;97938.25;;;34.16;39.11
77526;BME280;66627;29.424;-98.496;2023-06-19T02:21:11;97935.72;;;34.42;38.65
77526;BME280;66627;29.424;-98.496;2023-06-19T02:23:36;97944.95;;;34.69;39.27
77526;BME280;66627;29.424;-98.496;2023-06-19T02:26:02;97947.65;;;34.47;39.51
77526;BME280;66627;29.424;-98.496;2023-06-19T02:28:27;97950.93;;;34.96;39.55
77526;BME280;66627;29.424;-98.496;2023-06-19T02:30:53;97952.25;;;34.51;39.56
77526;BME280;66627;29.424;-98.496;2023-06-19T02:33:17;97956.09;;;33.63;40.41
77526;BME280;66627;29.424;-98.496;2023-06-19T02:35:43;97958.02;;;34.13;40.21
77526;BME280;66627;29.424;-98.496;2023-06-19T02:38:08;97964.84;;;34.17;40.73
77526;BME280;66627;29.424;-98.496;2023-06-19T02:40:34;97970.59;;;33.71;41.22
77526;BME280;66627;29.424;-98.496;2023-06-19T02:42:59;97980.38;;;34.47;40.37
77526;BME280;66627;29.424;-98.496;2023-06-19T02:45:25;97989.97;;;34.09;40.95
77526;BME280;66627;29.424;-98.496;2023-06-19T02:47:51;97995.93;;;33.76;41.46
77526;BME280;66627;29.424;-98.496;2023-06-19T02:50:16;98002.37;;;33.70;41.82
77526;BME280;66627;29.424;-98.496;2023-06-19T02:52:42;98006.05;;;34.05;41.38
77526;BME280;66627;29.424;-98.496;2023-06-19T02:55:08;98012.19;;;33.53;41.46
77526;BME280;66627;29.424;-98.496;2023-06-19T02:57:33;98015.00;;;33.57;41.83
77526;BME280;66627;29.424;-98.496;2023-06-19T02:59:59;98021.27;;;33.83;41.65
77526;BME280;66627;29.424;-98.496;2023-06-19T03:02:24;98028.49;;;33.57;41.88
77526;BME280;66627;29.424;-98.496;2023-06-19T03:04:50;98031.34;;;33.54;42.30
77526;BME280;66627;29.424;-98.496;2023-06-19T03:07:14;98034.76;;;33.28;41.96
77526;BME280;66627;29.424;-98.496;2023-06-19T03:09:40;98038.26;;;33.30;42.96
77526;BME280;66627;29.424;-98.496;2023-06-19T03:12:06;98042.57;;;33.15;42.75
77526;BME280;66627;29.424;-98.496;2023-06-19T03:14:31;98046.43;;;33.64;42.19
77526;BME280;66627;29.424;-98.496;2023-06-19T03:16:57;98048.55;;;33.83;41.83
77526;BME280;66627;29.424;-98.496;2023-06-19T03:19:22;98051.11;;;33.39;42.74
77526;BME280;66627;29.424;-98.496;2023-06-19T03:21:48;98052.46;;;33.61;42.70
77526;BME280;66627;29.424;-98.496;2023-06-19T03:24:13;98059.99;;;33.48;42.21
77526;BME280;66627;29.424;-98.496;2023-06-19T03:26:39;98065.47;;;33.91;41.71
77526;BME280;66627;29.424;-98.496;2023-06-19T03:29:04;98071.59;;;33.24;42.82
77526;BME280;66627;29.424;-98.496;2023-06-19T03:31:30;98078.70;;;32.83;43.10
77526;BME280;66627;29.424;-98.496;2023-06-19T03:33:55;98092.58;;;33.07;43.62
77526;BME280;66627;29.424;-98.496;2023-06-19T03:36:21;98094.38;;;32.74;44.17
77526;BME280;66627;29.424;-98.496;2023-06-19T03:38:47;98101.41;;;33.20;43.68
77526;BME280;66627;29.424;-98.496;2023-06-19T03:41:12;98104.30;;;33.04;43.59
77526;BME280;66627;29.424;-98.496;2023-06-19T03:43:38;98108.82;;;33.21;43.63
77526;BME280;66627;29.424;-98.496;2023-06-19T03:46:03;98116.70;;;32.80;44.06
77526;BME280;66627;29.424;-98.496;2023-06-19T03:48:29;98125.07;;;33.26;43.33
77526;BME280;66627;29.424;-98.496;2023-06-19T03:50:54;98126.62;;;32.90;43.59
77526;BME280;66627;29.424;-98.496;2023-06-19T03:53:19;98127.33;;;33.21;43.49
77526;BME280;66627;29.424;-98.496;2023-06-19T03:55:45;98135.87;;;33.28;43.33
77526;BME280;66627;29.424;-98.496;2023-06-19T03:58:09;98135.92;;;33.08;43.22
77526;BME280;66627;29.424;-98.496;2023-06-19T04:00:35;98140.59;;;33.02;43.54
77526;BME280;66627;29.424;-98.496;2023-06-19T04:03:01;98144.54;;;33.30;43.28
77526;BME280;66627;29.424;-98.496;2023-06-19T04:05:26;98145.33;;;33.17;43.27
77526;BME280;66627;29.424;-98.496;2023-06-19T04:07:51;98150.63;;;32.79;44.04
77526;BME280;66627;29.424;-98.496;2023-06-19T04:10:17;98151.32;;;32.71;43.90
77526;BME280;66627;29.424;-98.496;2023-06-19T04:12:43;98155.06;;;32.93;43.29
77526;BME280;66627;29.424;-98.496;2023-06-19T04:15:08;98160.27;;;32.39;43.88
77526;BME280;66627;29.424;-98.496;2023-06-19T04:17:33;98157.96;;;33.08;42.84
77526;BME280;66627;29.424;-98.496;2023-06-19T04:19:59;98160.71;;;32.32;43.52
77526;BME280;66627;29.424;-98.496;2023-06-19T04:22:24;98157.82;;;32.64;43.47
77526;BME280;66627;29.424;-98.496;2023-06-19T04:24:50;98163.90;;;32.67;43.38
77526;BME280;66627;29.424;-98.496;2023-06-19T04:27:15;98155.82;;;32.21;43.52
77526;BME280;66627;29.424;-98.496;2023-06-19T04:29:40;98152.34;;;32.18;44.10
77526;BME280;66627;29.424;-98.496;2023-06-19T04:32:06;98154.96;;;32.78;43.67
77526;BME280;66627;29.424;-98.496;2023-06-19T04:34:32;98156.50;;;32.07;45.13
77526;BME280;66627;29.424;-98.496;2023-06-19T04:36:57;98156.83;;;31.95;44.78
77526;BME280;66627;29.424;-98.496;2023-06-19T04:39:22;98160.98;;;31.32;45.18
77526;BME280;66627;29.424;-98.496;2023-06-19T04:41:48;98162.92;;;31.76;45.36
77526;BME280;66627;29.424;-98.496;2023-06-19T04:44:13;98170.46;;;31.84;45.42
77526;BME280;66627;29.424;-98.496;2023-06-19T04:46:40;98178.08;;;32.19;45.05
77526;BME280;66627;29.424;-98.496;2023-06-19T04:49:04;98175.28;;;32.22;44.07
77526;BME280;66627;29.424;-98.496;2023-06-19T04:51:30;98175.51;;;31.52;45.22
77526;BME280;66627;29.424;-98.496;2023-06-19T04:53:56;98175.43;;;31.96;44.29
77526;BME280;66627;29.424;-98.496;2023-06-19T04:56:21;98176.18;;;32.26;44.67
77526;BME280;66627;29.424;-98.496;2023-06-19T04:58:56;98180.59;;;32.18;44.83
77526;BME280;66627;29.424;-98.496;2023-06-19T05:01:11;98182.45;;;31.87;45.34
77526;BME280;66627;29.424;-98.496;2023-06-19T05:03:37;98187.47;;;31.75;45.71
77526;BME280;66627;29.424;-98.496;2023-06-19T05:06:02;98193.44;;;31.83;45.68
77526;BME280;66627;29.424;-98.496;2023-06-19T05:08:28;98191.52;;;31.29;46.69
77526;BME280;66627;29.424;-98.496;2023-06-19T05:10:54;98184.80;;;31.25;46.53
77526;BME280;66627;29.424;-98.496;2023-06-19T05:13:19;98180.71;;;31.39;46.19
77526;BME280;66627;29.424;-98.496;2023-06-19T05:15:45;98175.77;;;31.14;46.88
77526;BME280;66627;29.424;-98.496;2023-06-19T05:18:10;98179.52;;;31.89;45.92
77526;BME280;66627;29.424;-98.496;2023-06-19T05:20:35;98178.27;;;31.70;45.77
77526;BME280;66627;29.424;-98.496;2023-06-19T05:23:00;98181.51;;;31.67;46.05
77526;BME280;66627;29.424;-98.496;2023-06-19T05:25:25;98181.98;;;31.21;46.66
77526;BME280;66627;29.424;-98.496;2023-06-19T05:27:51;98184.47;;;30.82;47.91
77526;BME280;66627;29.424;-98.496;2023-06-19T05:30:16;98183.81;;;31.58;46.15
77526;BME280;66627;29.424;-98.496;2023-06-19T05:32:41;98184.89;;;31.07;47.74
77526;BME280;66627;29.424;-98.496;2023-06-19T05:35:08;98190.32;;;30.92;48.29
77526;BME280;66627;29.424;-98.496;2023-06-19T05:37:33;98187.55;;;30.67;47.72
77526;BME280;66627;29.424;-98.496;2023-06-19T05:39:57;98190.30;;;31.50;47.16
77526;BME280;66627;29.424;-98.496;2023-06-19T05:42:23;98193.47;;;31.44;47.38
77526;BME280;66627;29.424;-98.496;2023-06-19T05:44:48;98196.15;;;31.19;47.21
77526;BME280;66627;29.424;-98.496;2023-06-19T05:47:14;98196.15;;;31.08;47.66
77526;BME280;66627;29.424;-98.496;2023-06-19T05:49:39;98196.54;;;30.84;48.09
77526;BME280;66627;29.424;-98.496;2023-06-19T05:52:05;98198.24;;;30.68;48.56
77526;BME280;66627;29.424;-98.496;2023-06-19T05:54:30;98197.18;;;31.16;47.99
77526;BME280;66627;29.424;-98.496;2023-06-19T05:56:56;98193.22;;;30.59;48.92
77526;BME280;66627;29.424;-98.496;2023-06-19T05:59:21;98190.87;;;30.74;48.86
77526;BME280;66627;29.424;-98.496;2023-06-19T06:01:46;98188.29;;;30.77;48.75
77526;BME280;66627;29.424;-98.496;2023-06-19T06:04:11;98191.08;;;30.37;49.59
77526;BME280;66627;29.424;-98.496;2023-06-19T06:06:37;98187.55;;;31.04;48.25
77526;BME280;66627;29.424;-98.496;2023-06-19T06:09:02;98188.52;;;30.84;48.15
77526;BME280;66627;29.424;-98.496;2023-06-19T06:11:28;98185.44;;;30.46;49.18
77526;BME280;66627;29.424;-98.496;2023-06-19T06:13:54;98187.01;;;30.46;49.25
77526;BME280;66627;29.424;-98.496;2023-06-19T06:16:19;98188.30;;;31.06;48.10
77526;BME280;66627;29.424;-98.496;2023-06-19T06:18:45;98186.67;;;30.74;48.71
77526;BME280;66627;29.424;-98.496;2023-06-19T06:21:10;98188.49;;;30.98;48.00
77526;BME280;66627;29.424;-98.496;2023-06-19T06:23:36;98191.43;;;30.88;48.38
77526;BME280;66627;29.424;-98.496;2023-06-19T06:26:01;98190.88;;;30.28;49.82
77526;BME280;66627;29.424;-98.496;2023-06-19T06:28:28;98192.91;;;30.42;49.55
77526;BME280;66627;29.424;-98.496;2023-06-19T06:30:52;98196.73;;;30.12;49.92
77526;BME280;66627;29.424;-98.496;2023-06-19T06:33:17;98197.69;;;29.59;50.82
77526;BME280;66627;29.424;-98.496;2023-06-19T06:35:42;98192.57;;;29.82;50.56
77526;BME280;66627;29.424;-98.496;2023-06-19T06:38:08;98191.19;;;29.84;50.58
77526;BME280;66627;29.424;-98.496;2023-06-19T06:40:33;98190.94;;;29.75;51.49
77526;BME280;66627;29.424;-98.496;2023-06-19T06:42:59;98193.20;;;29.99;50.70
77526;BME280;66627;29.424;-98.496;2023-06-19T06:45:24;98187.72;;;29.66;51.41
77526;BME280;66627;29.424;-98.496;2023-06-19T06:47:49;98187.91;;;29.90;51.00
77526;BME280;66627;29.424;-98.496;2023-06-19T06:50:19;98192.49;;;29.33;51.99
77526;BME280;66627;29.424;-98.496;2023-06-19T06:52:40;98198.66;;;30.10;51.10
77526;BME280;66627;29.424;-98.496;2023-06-19T06:55:06;98196.38;;;30.08;50.44
77526;BME280;66627;29.424;-98.496;2023-06-19T06:57:31;98192.71;;;30.46;50.29
77526;BME280;66627;29.424;-98.496;2023-06-19T06:59:56;98190.01;;;29.91;51.11
77526;BME280;66627;29.424;-98.496;2023-06-19T07:02:21;98191.95;;;29.87;51.41
77526;BME280;66627;29.424;-98.496;2023-06-19T07:04:47;98188.75;;;30.33;50.64
77526;BME280;66627;29.424;-98.496;2023-06-19T07:07:13;98188.62;;;30.13;50.79
77526;BME280;66627;29.424;-98.496;2023-06-19T07:09:38;98182.56;;;30.05;50.80
77526;BME280;66627;29.424;-98.496;2023-06-19T07:12:05;98181.30;;;29.38;51.62
77526;BME280;66627;29.424;-98.496;2023-06-19T07:14:30;98181.48;;;29.71;51.83
77526;BME280;66627;29.424;-98.496;2023-06-19T07:16:55;98182.11;;;29.63;51.98
77526;BME280;66627;29.424;-98.496;2023-06-19T07:19:20;98181.86;;;30.01;51.37
77526;BME280;66627;29.424;-98.496;2023-06-19T07:21:45;98183.94;;;29.22;52.96
77526;BME280;66627;29.424;-98.496;2023-06-19T07:24:11;98183.75;;;29.68;51.50
77526;BME280;66627;29.424;-98.496;2023-06-19T07:26:36;98181.12;;;29.74;51.72
77526;BME280;66627;29.424;-98.496;2023-06-19T07:29:02;98178.74;;;29.86;51.75
77526;BME280;66627;29.424;-98.496;2023-06-19T07:31:27;98172.77;;;29.65;52.04
77526;BME280;66627;29.424;-98.496;2023-06-19T07:33:52;98174.02;;;29.45;51.43
77526;BME280;66627;29.424;-98.496;2023-06-19T07:36:18;98177.84;;;30.02;50.86
77526;BME280;66627;29.424;-98.496;2023-06-19T07:38:44;98175.53;;;29.93;50.93
77526;BME280;66627;29.424;-98.496;2023-06-19T07:41:09;98178.23;;;29.85;51.63
77526;BME280;66627;29.424;-98.496;2023-06-19T07:43:34;98177.87;;;29.90;51.58
77526;BME280;66627;29.424;-98.496;2023-06-19T07:46:00;98175.68;;;29.61;51.73
77526;BME280;66627;29.424;-98.496;2023-06-19T07:48:26;98174.96;;;30.07;52.11
77526;BME280;66627;29.424;-98.496;2023-06-19T07:50:52;98176.94;;;29.62;52.35
77526;BME280;66627;29.424;-98.496;2023-06-19T07:53:17;98176.25;;;29.96;51.60
77526;BME280;66627;29.424;-98.496;2023-06-19T07:55:43;98177.39;;;29.98;51.68
77526;BME280;66627;29.424;-98.496;2023-06-19T07:58:08;98177.88;;;29.47;52.13
77526;BME280;66627;29.424;-98.496;2023-06-19T08:00:34;98179.94;;;29.66;51.26
77526;BME280;66627;29.424;-98.496;2023-06-19T08:02:59;98178.52;;;29.16;53.23
77526;BME280;66627;29.424;-98.496;2023-06-19T08:05:24;98172.38;;;29.76;52.38
77526;BME280;66627;29.424;-98.496;2023-06-19T08:07:50;98177.00;;;29.49;52.95
77526;BME280;66627;29.424;-98.496;2023-06-19T08:10:16;98178.65;;;29.30;53.41
77526;BME280;66627;29.424;-98.496;2023-06-19T08:12:43;98178.57;;;29.08;53.44
77526;BME280;66627;29.424;-98.496;2023-06-19T08:15:08;98177.97;;;29.61;52.57
77526;BME280;66627;29.424;-98.496;2023-06-19T08:17:32;98178.52;;;29.47;53.10
77526;BME280;66627;29.424;-98.496;2023-06-19T08:19:58;98179.92;;;29.08;53.36
77526;BME280;66627;29.424;-98.496;2023-06-19T08:22:23;98178.54;;;29.79;52.93
77526;BME280;66627;29.424;-98.496;2023-06-19T08:24:49;98170.98;;;29.67;52.77
77526;BME280;66627;29.424;-98.496;2023-06-19T08:27:14;98175.51;;;29.63;53.18
77526;BME280;66627;29.424;-98.496;2023-06-19T08:29:39;98177.98;;;29.15;53.79
77526;BME280;66627;29.424;-98.496;2023-06-19T08:32:05;98180.00;;;28.92;54.21
77526;BME280;66627;29.424;-98.496;2023-06-19T08:34:30;98179.13;;;29.25;53.73
77526;BME280;66627;29.424;-98.496;2023-06-19T08:36:56;98177.49;;;28.93;54.46
77526;BME280;66627;29.424;-98.496;2023-06-19T08:39:21;98177.19;;;28.32;55.66
77526;BME280;66627;29.424;-98.496;2023-06-19T08:41:47;98173.58;;;28.76;54.83
77526;BME280;66627;29.424;-98.496;2023-06-19T08:44:12;98173.84;;;29.33;53.93
77526;BME280;66627;29.424;-98.496;2023-06-19T08:46:38;98172.11;;;29.12;54.32
77526;BME280;66627;29.424;-98.496;2023-06-19T08:49:04;98172.77;;;29.52;53.53
77526;BME280;66627;29.424;-98.496;2023-06-19T08:51:29;98174.08;;;29.31;54.12
77526;BME280;66627;29.424;-98.496;2023-06-19T08:54:00;98174.88;;;29.14;54.40
77526;BME280;66627;29.424;-98.496;2023-06-19T08:56:19;98176.60;;;28.68;55.48
77526;BME280;66627;29.424;-98.496;2023-06-19T08:58:45;98178.59;;;29.09;54.62
77526;BME280;66627;29.424;-98.496;2023-06-19T09:01:10;98178.64;;;28.86;55.38
77526;BME280;66627;29.424;-98.496;2023-06-19T09:03:35;98175.23;;;28.75;55.52
77526;BME280;66627;29.424;-98.496;2023-06-19T09:06:04;98175.49;;;28.77;55.81
77526;BME280;66627;29.424;-98.496;2023-06-19T09:08:26;98180.97;;;29.55;54.17
77526;BME280;66627;29.424;-98.496;2023-06-19T09:10:57;98181.28;;;28.97;55.34
77526;BME280;66627;29.424;-98.496;2023-06-19T09:13:17;98185.44;;;28.53;55.88
77526;BME280;66627;29.424;-98.496;2023-06-19T09:15:43;98181.19;;;28.90;55.00
77526;BME280;66627;29.424;-98.496;2023-06-19T09:18:10;98182.62;;;28.97;55.15
77526;BME280;66627;29.424;-98.496;2023-06-19T09:20:35;98190.36;;;29.32;55.04
77526;BME280;66627;29.424;-98.496;2023-06-19T09:23:00;98195.64;;;29.39;54.38
77526;BME280;66627;29.424;-98.496;2023-06-19T09:25:25;98198.36;;;29.33;53.76
77526;BME280;66627;29.424;-98.496;2023-06-19T09:27:50;98198.72;;;29.03;54.41
77526;BME280;66627;29.424;-98.496;2023-06-19T09:30:16;98201.47;;;28.88;54.68
77526;BME280;66627;29.424;-98.496;2023-06-19T09:32:40;98197.85;;;29.34;54.16
77526;BME280;66627;29.424;-98.496;2023-06-19T09:35:06;98203.36;;;28.45;55.59
77526;BME280;66627;29.424;-98.496;2023-06-19T09:37:31;98203.07;;;28.94;54.68
77526;BME280;66627;29.424;-98.496;2023-06-19T09:39:58;98203.42;;;28.63;55.24
77526;BME280;66627;29.424;-98.496;2023-06-19T09:42:27;98197.78;;;29.28;54.37
77526;BME280;66627;29.424;-98.496;2023-06-19T09:44:49;98199.05;;;28.85;55.75
77526;BME280;66627;29.424;-98.496;2023-06-19T09:47:18;98192.49;;;29.19;55.22
77526;BME280;66627;29.424;-98.496;2023-06-19T09:49:38;98200.00;;;28.54;55.44
77526;BME280;66627;29.424;-98.496;2023-06-19T09:52:04;98200.15;;;28.53;56.59
77526;BME280;66627;29.424;-98.496;2023-06-19T09:54:29;98206.83;;;28.17;56.85
77526;BME280;66627;29.424;-98.496;2023-06-19T09:56:55;98210.34;;;28.36;56.61
77526;BME280;66627;29.424;-98.496;2023-06-19T09:59:20;98217.78;;;28.74;55.68
77526;BME280;66627;29.424;-98.496;2023-06-19T10:01:45;98223.14;;;28.59;56.35
77526;BME280;66627;29.424;-98.496;2023-06-19T10:04:11;98230.13;;;28.82;55.48
77526;BME280;66627;29.424;-98.496;2023-06-19T10:06:43;98232.49;;;28.59;56.06
77526;BME280;66627;29.424;-98.496;2023-06-19T10:09:08;98235.53;;;29.16;55.34
77526;BME280;66627;29.424;-98.496;2023-06-19T10:11:27;98235.56;;;28.28;56.70
77526;BME280;66627;29.424;-98.496;2023-06-19T10:13:53;98237.77;;;28.07;57.17
77526;BME280;66627;29.424;-98.496;2023-06-19T10:16:23;98243.19;;;28.41;56.82
77526;BME280;66627;29.424;-98.496;2023-06-19T10:18:46;98239.05;;;28.56;56.49
77526;BME280;66627;29.424;-98.496;2023-06-19T10:21:15;98239.27;;;28.40;57.36
77526;BME280;66627;29.424;-98.496;2023-06-19T10:23:37;98240.94;;;28.54;57.17
77526;BME280;66627;29.424;-98.496;2023-06-19T10:26:01;98242.24;;;28.49;56.66
77526;BME280;66627;29.424;-98.496;2023-06-19T10:28:27;98238.67;;;29.26;55.52
77526;BME280;66627;29.424;-98.496;2023-06-19T10:30:56;98242.52;;;28.37;57.15
77526;BME280;66627;29.424;-98.496;2023-06-19T10:33:17;98239.32;;;28.58;56.59
77526;BME280;66627;29.424;-98.496;2023-06-19T10:35:42;98240.23;;;28.55;56.74
77526;BME280;66627;29.424;-98.496;2023-06-19T10:38:08;98246.30;;;28.41;56.71
77526;BME280;66627;29.424;-98.496;2023-06-19T10:40:33;98251.16;;;28.04;57.42
77526;BME280;66627;29.424;-98.496;2023-06-19T10:42:58;98251.81;;;28.64;56.29
77526;BME280;66627;29.424;-98.496;2023-06-19T10:45:23;98250.34;;;28.89;55.56
77526;BME280;66627;29.424;-98.496;2023-06-19T10:47:48;98256.34;;;28.82;55.92
77526;BME280;66627;29.424;-98.496;2023-06-19T10:50:15;98257.86;;;28.86;55.66
77526;BME280;66627;29.424;-98.496;2023-06-19T10:52:43;98261.76;;;28.58;56.04
77526;BME280;66627;29.424;-98.496;2023-06-19T10:55:05;98262.28;;;28.44;57.15
77526;BME280;66627;29.424;-98.496;2023-06-19T10:57:30;98266.57;;;28.17;57.18
77526;BME280;66627;29.424;-98.496;2023-06-19T10:59:55;98268.39;;;28.57;56.68
77526;BME280;66627;29.424;-98.496;2023-06-19T11:02:21;98273.26;;;28.80;55.96
77526;BME280;66627;29.424;-98.496;2023-06-19T11:04:46;98275.85;;;28.82;55.70
77526;BME280;66627;29.424;-98.496;2023-06-19T11:07:13;98274.79;;;28.50;56.17
77526;BME280;66627;29.424;-98.496;2023-06-19T11:09:37;98273.46;;;27.95;57.10
77526;BME280;66627;29.424;-98.496;2023-06-19T11:12:03;98276.08;;;28.38;56.47
77526;BME280;66627;29.424;-98.496;2023-06-19T11:14:30;98278.63;;;28.94;55.91
77526;BME280;66627;29.424;-98.496;2023-06-19T11:16:53;98283.97;;;28.38;57.11
77526;BME280;66627;29.424;-98.496;2023-06-19T11:19:20;98288.30;;;28.31;56.75
77526;BME280;66627;29.424;-98.496;2023-06-19T11:21:46;98290.20;;;28.50;56.85
77526;BME280;66627;29.424;-98.496;2023-06-19T11:24:12;98288.19;;;27.94;58.14
77526;BME280;66627;29.424;-98.496;2023-06-19T11:26:37;98285.62;;;27.94;57.89
77526;BME280;66627;29.424;-98.496;2023-06-19T11:29:00;98287.79;;;28.59;56.31
77526;BME280;66627;29.424;-98.496;2023-06-19T11:31:27;98286.26;;;28.48;56.60
77526;BME280;66627;29.424;-98.496;2023-06-19T11:33:57;98276.35;;;28.15;56.27
77526;BME280;66627;29.424;-98.496;2023-06-19T11:36:18;98274.63;;;27.78;58.14
77526;BME280;66627;29.424;-98.496;2023-06-19T11:38:42;98277.93;;;28.58;56.31
77526;BME280;66627;29.424;-98.496;2023-06-19T11:41:07;98278.69;;;28.08;57.50
77526;BME280;66627;29.424;-98.496;2023-06-19T11:43:34;98286.12;;;28.47;56.70
77526;BME280;66627;29.424;-98.496;2023-06-19T11:46:02;98289.37;;;27.82;58.22
77526;BME280;66627;29.424;-98.496;2023-06-19T11:48:24;98297.05;;;28.08;57.44
77526;BME280;66627;29.424;-98.496;2023-06-19T11:50:50;98300.39;;;28.00;57.46
77526;BME280;66627;29.424;-98.496;2023-06-19T11:53:15;98303.70;;;28.08;56.90
77526;BME280;66627;29.424;-98.496;2023-06-19T11:55:40;98299.68;;;27.96;57.40
77526;BME280;66627;29.424;-98.496;2023-06-19T11:58:06;98299.23;;;28.10;57.09
77526;BME280;66627;29.424;-98.496;2023-06-19T12:00:31;98299.61;;;28.56;56.34
77526;BME280;66627;29.424;-98.496;2023-06-19T12:02:57;98298.61;;;27.98;57.29
77526;BME280;66627;29.424;-98.496;2023-06-19T12:05:22;98298.57;;;28.24;57.09
77526;BME280;66627;29.424;-98.496;2023-06-19T12:07:48;98300.59;;;28.07;57.00
77526;BME280;66627;29.424;-98.496;2023-06-19T12:10:13;98301.23;;;28.18;57.04
77526;BME280;66627;29.424;-98.496;2023-06-19T12:12:39;98305.19;;;27.88;57.79
77526;BME280;66627;29.424;-98.496;2023-06-19T12:15:06;98314.27;;;27.78;57.94
77526;BME280;66627;29.424;-98.496;2023-06-19T12:17:30;98318.95;;;27.48;58.57
77526;BME280;66627;29.424;-98.496;2023-06-19T12:19:55;98320.64;;;28.11;57.71
77526;BME280;66627;29.424;-98.496;2023-06-19T12:22:20;98324.00;;;28.37;56.53
77526;BME280;66627;29.424;-98.496;2023-06-19T12:24:46;98326.27;;;27.99;57.08
77526;BME280;66627;29.424;-98.496;2023-06-19T12:27:11;98329.29;;;28.52;56.29
77526;BME280;66627;29.424;-98.496;2023-06-19T12:29:36;98331.95;;;27.60;58.04